createdAt,value
2024-01-25T00:02:52.985Z,102909.34
2024-01-25T00:07:50.904Z,102929.13
2024-01-25T00:12:47.939Z,102920.41
2024-01-25T00:17:45.822Z,102911.75
2024-01-25T00:22:43.136Z,102902.13
2024-01-25T00:27:39.972Z,102887.09
2024-01-25T00:32:36.843Z,102896.94
2024-01-25T00:37:34.013Z,102896.94
2024-01-25T00:42:32.149Z,102878.84
2024-01-25T00:47:29.440Z,102882.34
2024-01-25T00:52:26.618Z,102876.22
2024-01-25T00:57:24.014Z,102879.72
2024-01-25T01:02:23.020Z,102851.59
2024-01-25T01:07:20.622Z,102839.28
2024-01-25T01:12:18.047Z,102865.50
2024-01-25T01:17:16.809Z,102859.22
2024-01-25T01:22:13.663Z,102863.47
2024-01-25T01:27:10.661Z,102855.66
2024-01-25T01:32:07.547Z,102849.63
2024-01-25T01:37:04.459Z,102853.88
2024-01-25T01:42:01.277Z,102840.81
2024-01-25T01:46:58.096Z,102839.88
2024-01-25T01:51:55.352Z,102842.31
2024-01-25T01:56:52.929Z,102820.22
2024-01-25T02:01:50.042Z,102843.88
2024-01-25T02:06:47.722Z,102830.66
2024-01-25T02:11:44.572Z,102788.69
2024-01-25T02:16:42.638Z,102794.00
2024-01-25T02:21:39.568Z,102765.16
2024-01-25T02:26:38.060Z,102792.22
2024-01-25T02:31:35.032Z,102806.94
2024-01-25T02:36:31.807Z,102800.13
2024-01-25T02:41:31.242Z,102790.81
2024-01-25T02:46:28.152Z,102769.63
2024-01-25T02:51:25.075Z,102768.97
2024-01-25T02:56:21.900Z,102770.09
2024-01-25T03:01:18.969Z,102772.13
2024-01-25T03:06:15.981Z,102766.31
2024-01-25T03:11:12.824Z,102771.69
2024-01-25T03:16:09.785Z,102771.06
2024-01-25T03:21:06.648Z,102751.31
2024-01-25T03:26:03.878Z,102754.03
2024-01-25T03:31:03.681Z,102743.69
2024-01-25T03:36:04.572Z,102700.19
2024-01-25T03:41:01.400Z,102719.59
2024-01-25T03:45:58.238Z,102728.38
2024-01-25T03:50:57.665Z,102725.03
2024-01-25T03:55:54.414Z,102726.09
2024-01-25T04:00:51.267Z,102688.78
2024-01-25T04:05:48.228Z,102717.84
2024-01-25T04:10:45.080Z,102689.56
2024-01-25T04:15:41.875Z,102697.47
2024-01-25T04:20:38.808Z,102695.88
2024-01-25T04:25:35.767Z,102707.44
2024-01-25T04:30:34.209Z,102702.44
2024-01-25T04:35:33.248Z,102688.84
2024-01-25T04:40:30.388Z,102690.78
2024-01-25T04:45:27.246Z,102675.44
2024-01-25T04:50:24.198Z,102675.59
2024-01-25T04:55:21.534Z,102673.13
2024-01-25T05:00:18.743Z,102668.06
2024-01-25T05:05:16.409Z,102656.88
2024-01-25T05:10:13.453Z,102644.97
2024-01-25T05:15:12.695Z,102661.47
2024-01-25T05:20:10.961Z,102649.44
2024-01-25T05:25:09.545Z,102646.97
2024-01-25T05:30:07.653Z,102648.84
2024-01-25T05:35:05.268Z,102631.72
2024-01-25T05:40:02.318Z,102633.72
2024-01-25T05:44:59.624Z,102637.34
2024-01-25T05:49:56.624Z,102625.41
2024-01-25T05:54:53.508Z,102585.47
2024-01-25T05:59:51.444Z,102595.22
2024-01-25T06:04:50.589Z,102614.59
2024-01-25T06:09:47.418Z,102619.09
2024-01-25T06:14:44.334Z,102598.47
2024-01-25T06:19:41.544Z,102596.00
2024-01-25T06:24:39.069Z,102584.91
2024-01-25T06:29:35.894Z,102592.88
2024-01-25T06:34:32.748Z,102560.72
2024-01-25T06:39:30.083Z,102582.63
2024-01-25T06:44:29.508Z,102574.06
2024-01-25T06:49:26.452Z,102554.09
2024-01-25T06:54:23.573Z,102578.59
2024-01-25T06:59:20.357Z,102587.41
2024-01-25T07:04:17.665Z,102583.19
2024-01-25T07:09:14.965Z,102586.72
2024-01-25T07:14:11.725Z,102561.50
2024-01-25T07:19:08.694Z,102585.94
2024-01-25T07:24:06.109Z,102572.00
2024-01-25T07:29:02.885Z,102603.38
2024-01-25T07:33:59.785Z,102600.81
2024-01-25T07:38:56.739Z,102572.91
2024-01-25T07:43:56.584Z,102591.28
2024-01-25T07:48:53.636Z,102575.69
2024-01-25T07:53:50.570Z,102568.69
2024-01-25T07:58:47.386Z,102567.00
2024-01-25T08:03:44.240Z,102560.06
2024-01-25T08:08:41.201Z,102553.13
2024-01-25T08:13:38.040Z,102506.13
2024-01-25T08:18:35.079Z,102522.69
2024-01-25T08:23:31.955Z,102514.88
2024-01-25T08:28:28.756Z,102527.09
2024-01-25T08:33:26.550Z,102538.44
2024-01-25T08:38:23.448Z,102527.13
2024-01-25T08:43:20.286Z,102528.91
2024-01-25T08:48:17.364Z,102542.81
2024-01-25T08:53:15.631Z,102546.34
2024-01-25T08:58:12.440Z,102537.66
2024-01-25T09:03:09.258Z,102527.22
2024-01-25T09:08:06.412Z,102539.44
2024-01-25T09:13:03.374Z,102523.78
2024-01-25T09:18:00.253Z,102510.72
2024-01-25T09:22:57.164Z,102505.50
2024-01-25T09:27:54.615Z,102495.97
2024-01-25T09:32:52.731Z,102502.97
2024-01-25T09:37:53.633Z,102495.97
2024-01-25T09:42:53.963Z,102484.66
2024-01-25T09:47:50.985Z,102475.06
2024-01-25T09:52:57.125Z,102478.53
2024-01-25T09:58:00.206Z,102472.44
2024-01-25T10:02:59.563Z,102476.78
2024-01-25T10:08:02.486Z,102453.28
2024-01-25T10:13:00.621Z,102478.47
2024-01-25T10:18:14.498Z,102475.84
2024-01-25T10:23:14.686Z,102479.31
2024-01-25T10:28:14.083Z,102476.66
2024-01-25T10:33:11.894Z,102470.56
2024-01-25T10:38:09.037Z,102485.28
2024-01-25T10:43:06.001Z,102461.75
2024-01-25T10:48:03.640Z,102485.16
2024-01-25T10:53:02.096Z,102468.53
2024-01-25T10:57:58.871Z,102482.47
2024-01-25T11:02:56.682Z,102465.00
2024-01-25T11:07:53.677Z,102458.84
2024-01-25T11:12:58.548Z,102465.75
2024-01-25T11:17:55.821Z,102464.81
2024-01-25T11:23:12.355Z,102452.53
2024-01-25T11:28:09.475Z,102406.38
2024-01-25T11:33:08.283Z,102422.66
2024-01-25T11:38:05.373Z,102432.94
2024-01-25T11:43:03.497Z,102439.03
2024-01-25T11:48:00.468Z,102435.41
2024-01-25T11:52:57.595Z,102406.47
2024-01-25T11:57:54.698Z,102391.50
2024-01-25T12:02:51.641Z,102372.97
2024-01-25T12:07:49.073Z,102368.50
2024-01-25T12:12:46.007Z,102369.84
2024-01-25T12:17:43.199Z,102354.19
2024-01-25T12:22:40.389Z,102368.09
2024-01-25T12:27:38.755Z,102336.91
2024-01-25T12:32:36.053Z,102357.81
2024-01-25T12:37:33.404Z,102345.56
2024-01-25T12:42:30.521Z,102330.09
2024-01-25T12:47:28.756Z,102303.13
2024-01-25T12:52:26.012Z,102322.97
2024-01-25T12:57:22.953Z,102337.59
2024-01-25T13:02:19.924Z,102298.34
2024-01-25T13:07:16.750Z,102337.34
2024-01-25T13:12:13.594Z,102302.47
2024-01-25T13:17:10.508Z,102304.09
2024-01-25T13:22:07.374Z,102331.03
2024-01-25T13:27:04.980Z,102333.72
2024-01-25T13:32:01.767Z,102336.22
2024-01-25T13:36:58.596Z,102328.44
2024-01-25T13:41:55.390Z,102325.91
2024-01-25T13:46:53.677Z,102326.97
2024-01-25T13:51:50.519Z,102310.56
2024-01-25T13:56:47.360Z,102314.94
2024-01-25T14:01:44.186Z,102300.09
2024-01-25T14:06:40.993Z,102283.47
2024-01-25T14:11:38.117Z,102275.59
2024-01-25T14:16:35.210Z,102261.63
2024-01-25T14:21:36.589Z,102258.16
2024-01-25T14:26:33.430Z,102254.69
2024-01-25T14:31:30.261Z,102244.19
2024-01-25T14:36:27.143Z,102248.44
2024-01-25T14:41:24.036Z,102242.38
2024-01-25T14:46:20.986Z,102242.38
2024-01-25T14:51:17.759Z,102241.50
2024-01-25T14:56:14.587Z,102225.00
2024-01-25T15:01:19.711Z,102226.75
2024-01-25T15:06:16.809Z,102179.16
2024-01-25T15:11:13.793Z,102205.25
2024-01-25T15:16:10.829Z,102203.53
2024-01-25T15:21:07.730Z,102206.19
2024-01-25T15:26:05.816Z,102178.47
2024-01-25T15:31:03.322Z,102214.97
2024-01-25T15:36:00.340Z,102212.41
2024-01-25T15:40:57.221Z,102220.28
2024-01-25T15:45:54.070Z,102234.28
2024-01-25T15:50:51.436Z,102230.03
2024-01-25T15:55:48.262Z,102209.19
2024-01-25T16:00:45.119Z,102217.19
2024-01-25T16:05:42.048Z,102198.34
2024-01-25T16:10:39.077Z,102223.41
2024-01-25T16:15:36.052Z,102212.25
2024-01-25T16:20:32.897Z,102237.50
2024-01-25T16:25:31.747Z,102234.97
2024-01-25T16:30:28.644Z,102199.38
2024-01-25T16:35:25.513Z,102207.13
2024-01-25T16:40:22.258Z,102208.00
2024-01-25T16:45:19.050Z,102214.09
2024-01-25T16:50:16.262Z,102219.41
2024-01-25T16:55:13.289Z,102169.09
2024-01-25T17:00:10.622Z,102219.38
2024-01-25T17:05:07.653Z,102179.53
2024-01-25T17:10:05.691Z,102161.28
2024-01-25T17:15:02.462Z,102197.69
2024-01-25T17:20:03.539Z,102195.16
2024-01-25T17:25:01.216Z,102152.53
2024-01-25T17:29:58.181Z,102178.53
2024-01-25T17:34:58.214Z,102169.88
2024-01-25T17:39:55.216Z,102164.63
2024-01-25T17:44:52.157Z,102147.34
2024-01-25T17:49:51.567Z,102167.31
2024-01-25T17:54:48.445Z,102151.72
2024-01-25T17:59:45.215Z,102169.06
2024-01-25T18:04:42.045Z,102179.63
2024-01-25T18:09:39.011Z,102169.22
2024-01-25T18:14:35.911Z,102170.13
2024-01-25T18:19:37.283Z,102158.88
2024-01-25T18:24:34.278Z,102174.47
2024-01-25T18:29:31.508Z,102107.66
2024-01-25T18:34:28.401Z,102150.09
2024-01-25T18:39:25.350Z,102160.53
2024-01-25T18:44:26.013Z,102144.06
2024-01-25T18:49:22.890Z,102150.97
2024-01-25T18:54:21.029Z,102134.53
2024-01-25T18:59:19.262Z,102164.00
2024-01-25T19:04:16.677Z,102139.59
2024-01-25T19:09:13.889Z,102139.59
2024-01-25T19:14:10.744Z,102125.78
2024-01-25T19:19:07.758Z,102122.25
2024-01-25T19:24:05.414Z,102128.34
2024-01-25T19:29:02.206Z,102103.94
2024-01-25T19:33:59.063Z,102091.66
2024-01-25T19:38:56.022Z,102085.56
2024-01-25T19:43:52.929Z,102059.44
2024-01-25T19:48:49.925Z,102029.88
2024-01-25T19:53:47.052Z,102018.59
2024-01-25T19:58:48.738Z,102051.50
2024-01-25T20:03:47.067Z,102047.06
2024-01-25T20:08:45.171Z,102043.66
2024-01-25T20:13:42.651Z,102021.00
2024-01-25T20:18:39.671Z,102019.16
2024-01-25T20:23:36.760Z,102016.56
2024-01-25T20:28:33.639Z,102029.69
2024-01-25T20:33:30.541Z,102031.34
2024-01-25T20:38:27.442Z,102014.09
2024-01-25T20:43:24.217Z,102027.91
2024-01-25T20:48:21.141Z,102019.22
2024-01-25T20:53:18.319Z,102019.94
2024-01-25T20:58:15.126Z,101988.81
2024-01-25T21:03:12.192Z,102005.06
2024-01-25T21:08:11.147Z,101985.03
2024-01-25T21:13:08.448Z,101977.13
2024-01-25T21:18:06.164Z,101978.19
2024-01-25T21:23:03.327Z,101972.13
2024-01-25T21:28:02.105Z,101992.81
2024-01-25T21:32:59.005Z,101949.19
2024-01-25T21:37:56.032Z,101943.97
2024-01-25T21:42:53.454Z,101959.59
2024-01-25T21:47:50.348Z,101938.63
2024-01-25T21:52:47.270Z,101926.22
2024-01-25T21:57:51.072Z,101905.34
2024-01-25T22:02:51.690Z,101926.09
2024-01-25T22:07:49.902Z,101932.19
2024-01-25T22:12:46.766Z,101917.25
2024-01-25T22:17:43.675Z,101931.13
2024-01-25T22:22:41.231Z,101917.13
2024-01-25T22:27:39.181Z,101870.97
2024-01-25T22:32:36.026Z,101883.78
2024-01-25T22:37:32.772Z,101897.72
2024-01-25T22:42:29.616Z,101880.16
2024-01-25T22:47:26.468Z,101881.88
2024-01-25T22:52:23.356Z,101880.25
2024-01-25T22:57:21.100Z,101839.34
2024-01-25T23:02:17.977Z,101864.34
2024-01-25T23:07:14.814Z,101861.63
2024-01-25T23:12:11.849Z,101812.25
2024-01-25T23:17:09.004Z,101818.31
2024-01-25T23:22:07.703Z,101839.09
2024-01-25T23:27:04.887Z,101846.81
2024-01-25T23:32:01.674Z,101829.44
2024-01-25T23:36:58.758Z,101815.44
2024-01-25T23:41:55.573Z,101794.50
2024-01-25T23:46:52.406Z,101804.09
2024-01-25T23:51:49.507Z,101815.72
2024-01-25T23:56:46.344Z,101802.53
